Time;durP1;ratioP1;P1;durP2;ratioP2;P2;SDS_P1;SDS_P2;PMS_P1;PMS_P2;Temp;Humidity;BMP_temperature;BMP_pressure;BME280_temperature;BME280_humidity;BME280_pressure;Samples;Min_cycle;Max_cycle;Signal;HPM_P1;HPM_P2
2022/06/27 00:00:57;;;;;;;;;;;;;;;;;;4954069;28;19911;-77
2022/06/27 00:03:22;;;;;;;;;;;;;;;;;;4936916;29;19929;-77
2022/06/27 00:05:48;;;;;;;;;;;;;;;;;;4953190;29;19915;-77
2022/06/27 00:08:13;;;;;;;;;;;;;;;;;;4921721;29;19914;-78
2022/06/27 00:10:38;;;;;;;;;;;;;;;;;;4954792;28;20397;-77
2022/06/27 00:13:04;;;;;;;;;;;;;;;;;;4936976;29;20001;-78
2022/06/27 00:15:29;;;;;;;;;;;;;;;;;;4937298;29;20373;-78
2022/06/27 00:17:57;;;;;;;;;;;;;;;;;;4937098;29;19918;-78
2022/06/27 00:20:22;;;;;;;;;;;;;;;;;;4937160;29;20285;-77
2022/06/27 00:22:48;;;;;;;;;;;;;;;;;;4921214;29;19914;-77
2022/06/27 00:25:16;;;;;;;;;;;;;;;;;;4937280;29;20065;-77
2022/06/27 00:27:42;;;;;;;;;;;;;;;;;;4937190;29;19962;-77
2022/06/27 00:30:07;;;;;;;;;;;;;;;;;;4921234;29;19915;-77
2022/06/27 00:32:33;;;;;;;;;;;;;;;;;;4920968;29;19926;-78
2022/06/27 00:34:58;;;;;;;;;;;;;;;;;;4937022;29;19919;-78
2022/06/27 00:37:24;;;;;;;;;;;;;;;;;;4921270;29;19922;-77
2022/06/27 00:39:49;;;;;;;;;;;;;;;;;;4936926;29;20333;-77
2022/06/27 00:42:14;;;;;;;;;;;;;;;;;;4920997;29;20008;-77
2022/06/27 00:44:40;;;;;;;;;;;;;;;;;;4953896;29;19936;-77
2022/06/27 00:47:05;;;;;;;;;;;;;;;;;;4952666;29;19942;-77
2022/06/27 00:49:31;;;;;;;;;;;;;;;;;;4936760;29;19917;-77
2022/06/27 00:51:56;;;;;;;;;;;;;;;;;;4920910;29;19914;-77
2022/06/27 00:54:22;;;;;;;;;;;;;;;;;;4921262;29;19914;-77
2022/06/27 00:56:47;;;;;;;;;;;;;;;;;;4936977;29;19968;-77
2022/06/27 00:59:13;;;;;;;;;;;;;;;;;;4954302;29;19921;-77
2022/06/27 01:01:38;;;;;;;;;;;;;;;;;;4953501;28;20325;-77
2022/06/27 01:04:03;;;;;;;;;;;;;;;;;;4921429;29;19910;-77
2022/06/27 01:06:29;;;;;;;;;;;;;;;;;;4936380;29;20416;-77
2022/06/27 01:08:54;;;;;;;;;;;;;;;;;;4953749;29;20310;-77
2022/06/27 01:11:20;;;;;;;;;;;;;;;;;;4921013;29;20358;-77
2022/06/27 01:13:45;;;;;;;;;;;;;;;;;;4920791;29;19962;-77
2022/06/27 01:16:10;;;;;;;;;;;;;;;;;;4924749;29;19918;-77
2022/06/27 01:18:36;;;;;;;;;;;;;;;;;;4957428;29;20286;-77
2022/06/27 01:21:02;;;;;;;;;;;;;;;;;;4956060;28;19919;-77
2022/06/27 01:23:27;;;;;;;;;;;;;;;;;;4956151;29;19914;-77
2022/06/27 01:25:54;;;;;;;;;;;;;;;;;;4940192;29;19958;-77
2022/06/27 01:28:19;;;;;;;;;;;;;;;;;;4940626;29;20437;-77
2022/06/27 01:30:45;;;;;;;;;;;;;;;;;;4939947;28;19914;-76
2022/06/27 01:33:11;;;;;;;;;;;;;;;;;;4955889;29;20301;-79
2022/06/27 01:35:37;;;;;;;;;;;;;;;;;;4939886;29;19914;-78
2022/06/27 01:38:04;;;;;;;;;;;;;;;;;;4924269;29;19911;-77
2022/06/27 01:40:29;;;;;;;;;;;;;;;;;;4924158;28;19922;-77
2022/06/27 01:42:57;;;;;;;;;;;;;;;;;;4924347;29;19918;-77
2022/06/27 01:45:22;;;;;;;;;;;;;;;;;;4939680;29;20062;-77
2022/06/27 01:47:48;;;;;;;;;;;;;;;;;;4923962;29;19922;-77
2022/06/27 01:50:13;;;;;;;;;;;;;;;;;;4939715;29;20413;-77
2022/06/27 01:52:45;;;;;;;;;;;;;;;;;;4939328;29;20009;-78
2022/06/27 01:55:10;;;;;;;;;;;;;;;;;;4955468;29;19978;-78
2022/06/27 01:57:37;;;;;;;;;;;;;;;;;;4939500;29;19911;-77
2022/06/27 02:00:03;;;;;;;;;;;;;;;;;;4923775;29;19997;-77
2022/06/27 02:02:37;;;;;;;;;;;;;;;;;;4923517;29;19918;-78
2022/06/27 02:05:03;;;;;;;;;;;;;;;;;;4939321;29;19921;-77
2022/06/27 02:07:28;;;;;;;;;;;;;;;;;;4956491;29;20324;-77
2022/06/27 02:09:54;;;;;;;;;;;;;;;;;;4939391;29;20326;-78
2022/06/27 02:12:22;;;;;;;;;;;;;;;;;;4956276;28;20005;-77
2022/06/27 02:14:49;;;;;;;;;;;;;;;;;;4923601;29;20127;-77
2022/06/27 02:17:14;;;;;;;;;;;;;;;;;;4923526;29;19914;-77
2022/06/27 02:19:40;;;;;;;;;;;;;;;;;;4939092;29;19925;-77
2022/06/27 02:22:06;;;;;;;;;;;;;;;;;;4922981;29;19911;-77
2022/06/27 02:24:32;;;;;;;;;;;;;;;;;;4956151;28;19915;-78
2022/06/27 02:26:57;;;;;;;;;;;;;;;;;;4954635;29;19985;-77
2022/06/27 02:29:23;;;;;;;;;;;;;;;;;;4956432;29;19958;-77
2022/06/27 02:31:48;;;;;;;;;;;;;;;;;;4938891;29;19934;-77
2022/06/27 02:34:14;;;;;;;;;;;;;;;;;;4955812;29;19941;-77
2022/06/27 02:36:41;;;;;;;;;;;;;;;;;;4954810;29;19958;-77
2022/06/27 02:39:06;;;;;;;;;;;;;;;;;;4954744;29;20038;-77
2022/06/27 02:41:32;;;;;;;;;;;;;;;;;;4955515;28;19969;-77
2022/06/27 02:43:57;;;;;;;;;;;;;;;;;;4938764;29;19922;-77
2022/06/27 02:46:23;;;;;;;;;;;;;;;;;;4938594;29;19918;-78
2022/06/27 02:48:48;;;;;;;;;;;;;;;;;;4938597;29;20432;-77
2022/06/27 02:51:14;;;;;;;;;;;;;;;;;;4938282;29;19920;-77
2022/06/27 02:53:39;;;;;;;;;;;;;;;;;;4955686;29;20017;-77
2022/06/27 02:56:22;;;;;;;;;;;;;;;;;;4922825;29;20005;-79
2022/06/27 02:58:48;;;;;;;;;;;;;;;;;;4938545;29;19958;-77
2022/06/27 03:01:14;;;;;;;;;;;;;;;;;;4955188;28;19914;-77
2022/06/27 03:03:40;;;;;;;;;;;;;;;;;;4938450;29;19915;-77
2022/06/27 03:06:10;;;;;;;;;;;;;;;;;;4938360;29;19915;-79
2022/06/27 03:08:36;;;;;;;;;;;;;;;;;;4938219;29;19923;-77
2022/06/27 03:11:01;;;;;;;;;;;;;;;;;;4953685;28;20274;-77
2022/06/27 03:13:27;;;;;;;;;;;;;;;;;;4954143;29;20290;-77
2022/06/27 03:15:56;;;;;;;;;;;;;;;;;;4938096;29;19914;-77
2022/06/27 03:18:21;;;;;;;;;;;;;;;;;;4922139;29;20297;-78
2022/06/27 03:21:06;;;;;;;;;;;;;;;;;;4954851;28;19926;-78
2022/06/27 03:23:36;;;;;;;;;;;;;;;;;;4937978;29;19918;-77
2022/06/27 03:26:01;;;;;;;;;;;;;;;;;;4937850;29;19915;-77
2022/06/27 03:28:33;;;;;;;;;;;;;;;;;;4938101;29;19969;-77
2022/06/27 03:31:00;;;;;;;;;;;;;;;;;;4937371;29;19914;-78
2022/06/27 03:33:27;;;;;;;;;;;;;;;;;;4937461;29;19919;-77
2022/06/27 03:36:00;;;;;;;;;;;;;;;;;;4937668;28;20053;-76
2022/06/27 03:38:26;;;;;;;;;;;;;;;;;;4937149;29;19981;-78
2022/06/27 03:40:51;;;;;;;;;;;;;;;;;;4953407;28;19918;-77
2022/06/27 03:43:17;;;;;;;;;;;;;;;;;;4953714;29;19918;-76
2022/06/27 03:45:43;;;;;;;;;;;;;;;;;;4937597;29;19915;-78
2022/06/27 03:48:08;;;;;;;;;;;;;;;;;;4954810;29;19915;-77
2022/06/27 03:50:34;;;;;;;;;;;;;;;;;;4953397;28;19965;-77
2022/06/27 03:52:59;;;;;;;;;;;;;;;;;;4953195;29;19922;-78
2022/06/27 03:55:25;;;;;;;;;;;;;;;;;;4921796;29;20397;-77
2022/06/27 03:57:50;;;;;;;;;;;;;;;;;;4953600;29;19914;-77
2022/06/27 04:00:16;;;;;;;;;;;;;;;;;;4937628;29;19910;-78
2022/06/27 04:02:43;;;;;;;;;;;;;;;;;;4921442;29;19918;-77
2022/06/27 04:05:26;;;;;;;;;;;;;;;;;;4953398;29;19915;-76
2022/06/27 04:07:52;;;;;;;;;;;;;;;;;;4953969;29;19914;-77
2022/06/27 04:10:18;;;;;;;;;;;;;;;;;;4937138;29;19921;-76
2022/06/27 04:12:43;;;;;;;;;;;;;;;;;;4954175;28;19918;-77
2022/06/27 04:15:27;;;;;;;;;;;;;;;;;;4937423;29;19914;-76
2022/06/27 04:18:12;;;;;;;;;;;;;;;;;;4937293;29;19990;-78
2022/06/27 04:20:56;;;;;;;;;;;;;;;;;;4936886;29;19969;-77
2022/06/27 04:23:26;;;;;;;;;;;;;;;;;;4937057;29;19915;-77
2022/06/27 04:26:29;;;;;;;;;;;;;;;;;;4857660;29;19968;-77
2022/06/27 04:28:55;;;;;;;;;;;;;;;;;;4935807;29;19957;-77
2022/06/27 04:31:20;;;;;;;;;;;;;;;;;;4921189;29;20008;-77
2022/06/27 04:33:46;;;;;;;;;;;;;;;;;;4920873;29;19941;-77
2022/06/27 04:36:11;;;;;;;;;;;;;;;;;;4953908;29;19925;-77
2022/06/27 04:38:38;;;;;;;;;;;;;;;;;;4936615;29;19942;-77
2022/06/27 04:41:29;;;;;;;;;;;;;;;;;;4949804;28;20313;-77
2022/06/27 04:43:55;;;;;;;;;;;;;;;;;;4937006;29;20389;-77
2022/06/27 04:46:21;;;;;;;;;;;;;;;;;;4921162;29;20025;-77
2022/06/27 04:48:48;;;;;;;;;;;;;;;;;;4954668;28;19958;-77
2022/06/27 04:51:14;;;;;;;;;;;;;;;;;;4956467;28;19914;-78
2022/06/27 04:53:40;;;;;;;;;;;;;;;;;;4957606;29;20341;-77
2022/06/27 04:56:07;;;;;;;;;;;;;;;;;;4956514;29;19915;-77
2022/06/27 04:58:33;;;;;;;;;;;;;;;;;;4940615;29;19921;-78
2022/06/27 05:01:00;;;;;;;;;;;;;;;;;;4940008;29;19923;-79
2022/06/27 05:03:40;;;;;;;;;;;;;;;;;;4924637;29;19973;-78
2022/06/27 05:06:14;;;;;;;;;;;;;;;;;;4924734;29;19915;-79
2022/06/27 05:08:40;;;;;;;;;;;;;;;;;;4940326;29;19975;-77
2022/06/27 05:11:05;;;;;;;;;;;;;;;;;;4940042;29;19914;-77
2022/06/27 05:13:34;;;;;;;;;;;;;;;;;;4955855;29;19930;-77
2022/06/27 05:16:05;;;;;;;;;;;;;;;;;;4924537;29;19921;-77
2022/06/27 05:18:32;;;;;;;;;;;;;;;;;;4939973;29;19915;-77
2022/06/27 05:20:58;;;;;;;;;;;;;;;;;;4939526;29;19918;-77
2022/06/27 05:23:23;;;;;;;;;;;;;;;;;;4924026;29;20334;-79
2022/06/27 05:25:49;;;;;;;;;;;;;;;;;;4939713;29;19926;-77
2022/06/27 05:28:15;;;;;;;;;;;;;;;;;;4957544;29;19915;-77
2022/06/27 05:30:41;;;;;;;;;;;;;;;;;;4939670;28;19963;-77
2022/06/27 05:33:07;;;;;;;;;;;;;;;;;;4923910;29;19981;-78
2022/06/27 05:35:32;;;;;;;;;;;;;;;;;;4923890;29;19922;-78
2022/06/27 05:37:59;;;;;;;;;;;;;;;;;;4923761;29;19919;-76
2022/06/27 05:40:25;;;;;;;;;;;;;;;;;;4923807;29;19911;-78
2022/06/27 05:42:50;;;;;;;;;;;;;;;;;;4923012;29;19921;-77
2022/06/27 05:45:16;;;;;;;;;;;;;;;;;;4923711;29;20010;-78
2022/06/27 05:48:02;;;;;;;;;;;;;;;;;;4938953;29;19914;-78
2022/06/27 05:50:32;;;;;;;;;;;;;;;;;;4954834;28;19926;-78
2022/06/27 05:52:59;;;;;;;;;;;;;;;;;;4923262;29;20034;-78
2022/06/27 05:55:25;;;;;;;;;;;;;;;;;;4939391;29;19921;-78
2022/06/27 05:57:52;;;;;;;;;;;;;;;;;;4955121;29;19915;-77
2022/06/27 06:00:17;;;;;;;;;;;;;;;;;;4938242;29;20005;-78
2022/06/27 06:02:43;;;;;;;;;;;;;;;;;;4923455;29;20346;-78
2022/06/27 06:05:13;;;;;;;;;;;;;;;;;;4939218;29;19915;-77
2022/06/27 06:07:39;;;;;;;;;;;;;;;;;;4939088;29;20374;-78
2022/06/27 06:10:05;;;;;;;;;;;;;;;;;;4923422;29;19930;-77
2022/06/27 06:12:30;;;;;;;;;;;;;;;;;;4938639;29;19919;-78
2022/06/27 06:15:02;;;;;;;;;;;;;;;;;;4955002;28;19941;-77
2022/06/27 06:17:28;;;;;;;;;;;;;;;;;;4939717;29;20000;-79
2022/06/27 06:19:54;;;;;;;;;;;;;;;;;;4923163;29;20449;-79
2022/06/27 06:22:19;;;;;;;;;;;;;;;;;;4955821;28;20006;-78
2022/06/27 06:24:47;;;;;;;;;;;;;;;;;;4938942;29;19921;-78
2022/06/27 06:27:13;;;;;;;;;;;;;;;;;;4923147;29;20053;-77
2022/06/27 06:29:41;;;;;;;;;;;;;;;;;;4954693;29;19914;-78
2022/06/27 06:32:07;;;;;;;;;;;;;;;;;;4938593;29;19911;-79
2022/06/27 06:34:35;;;;;;;;;;;;;;;;;;4938731;29;20014;-77
2022/06/27 06:37:01;;;;;;;;;;;;;;;;;;4955729;29;19938;-78
2022/06/27 06:39:27;;;;;;;;;;;;;;;;;;4922993;29;19970;-78
2022/06/27 06:41:53;;;;;;;;;;;;;;;;;;4938419;29;19918;-78
2022/06/27 06:44:19;;;;;;;;;;;;;;;;;;4938708;29;19918;-78
2022/06/27 06:46:48;;;;;;;;;;;;;;;;;;4955017;28;19914;-78
2022/06/27 06:49:25;;;;;;;;;;;;;;;;;;4922752;29;19918;-78
2022/06/27 06:51:51;;;;;;;;;;;;;;;;;;4937885;29;20345;-78
2022/06/27 06:54:18;;;;;;;;;;;;;;;;;;4955193;29;19941;-77
2022/06/27 06:56:45;;;;;;;;;;;;;;;;;;4954100;29;19960;-78
2022/06/27 06:59:14;;;;;;;;;;;;;;;;;;4937967;29;19921;-77
2022/06/27 07:01:40;;;;;;;;;;;;;;;;;;4926892;29;19922;-77
2022/06/27 07:04:05;;;;;;;;;;;;;;;;;;4954212;29;20009;-77
2022/06/27 07:12:25;;;;;;;;;;;;;;;;;;4994097;28;19926;-89
2022/06/27 07:15:14;;;;;;;;;;;;;;;;;;4979281;28;19964;-88
2022/06/27 07:17:46;;;;;;;;;;;;;;;;;;4993181;28;20009;-91
2022/06/27 07:23:32;;;;;;;;;;;;;;;;;;4952570;28;19915;-88
2022/06/27 07:26:14;;;;;;;;;;;;;;;;;;4951565;28;19914;-90
2022/06/27 07:28:58;;;;;;;;;;;;;;;;;;4938456;28;19913;-89
2022/06/27 07:31:42;;;;;;;;;;;;;;;;;;4951363;28;20100;-87
2022/06/27 07:34:11;;;;;;;;;;;;;;;;;;4929804;28;19933;-88
2022/06/27 07:36:40;;;;;;;;;;;;;;;;;;4928374;28;20422;-88
2022/06/27 07:39:06;;;;;;;;;;;;;;;;;;4961487;28;19999;-89
2022/06/27 07:41:32;;;;;;;;;;;;;;;;;;4948874;28;19968;-88
2022/06/27 07:43:57;;;;;;;;;;;;;;;;;;4968487;28;19966;-86
2022/06/27 07:46:31;;;;;;;;;;;;;;;;;;4941972;28;19965;-87
2022/06/27 07:48:57;;;;;;;;;;;;;;;;;;4938265;28;19914;-87
2022/06/27 07:51:22;;;;;;;;;;;;;;;;;;4934413;28;19910;-85
2022/06/27 07:53:48;;;;;;;;;;;;;;;;;;4949156;28;19918;-88
2022/06/27 07:56:26;;;;;;;;;;;;;;;;;;4968203;28;20365;-85
2022/06/27 07:58:51;;;;;;;;;;;;;;;;;;4933305;28;19918;-86
2022/06/27 08:01:19;;;;;;;;;;;;;;;;;;4945099;28;19936;-83
2022/06/27 08:03:44;;;;;;;;;;;;;;;;;;4962955;28;20389;-87
2022/06/27 08:06:15;;;;;;;;;;;;;;;;;;4947295;28;19914;-86
2022/06/27 08:08:41;;;;;;;;;;;;;;;;;;4972871;28;19953;-90
2022/06/27 08:17:14;;;;;;;;;;;;;;;;;;4996703;28;19909;-91
2022/06/27 08:22:41;;;;;;;;;;;;;;;;;;4989427;28;19938;-92
2022/06/27 08:25:47;;;;;;;;;;;;;;;;;;4971490;28;19962;-90
2022/06/27 08:28:44;;;;;;;;;;;;;;;;;;5391341;23;21789;-83
2022/06/27 08:34:47;;;;;;;;;;;;;;;;;;4977169;28;19941;-88
2022/06/27 08:37:13;;;;;;;;;;;;;;;;;;4982334;28;19906;-88
2022/06/27 08:39:41;;;;;;;;;;;;;;;;;;5009081;28;20000;-89
2022/06/27 08:42:06;;;;;;;;;;;;;;;;;;4993955;23;20056;-78
2022/06/27 08:44:32;;;;;;;;;;;;;;;;;;4960508;28;19953;-78
2022/06/27 08:46:57;;;;;;;;;;;;;;;;;;4975597;28;20336;-78
2022/06/27 08:49:23;;;;;;;;;;;;;;;;;;4959391;28;19909;-78
2022/06/27 08:51:49;;;;;;;;;;;;;;;;;;4993394;28;19914;-78
2022/06/27 08:54:18;;;;;;;;;;;;;;;;;;4960361;28;20013;-79
2022/06/27 08:56:43;;;;;;;;;;;;;;;;;;4975752;28;19945;-79
2022/06/27 08:59:09;;;;;;;;;;;;;;;;;;4993741;28;19913;-79
2022/06/27 09:01:35;;;;;;;;;;;;;;;;;;4975596;28;19918;-79
2022/06/27 09:04:01;;;;;;;;;;;;;;;;;;4993465;28;20001;-80
2022/06/27 09:06:27;;;;;;;;;;;;;;;;;;4992616;28;20120;-80
2022/06/27 09:09:03;;;;;;;;;;;;;;;;;;4992747;28;19921;-79
2022/06/27 09:11:29;;;;;;;;;;;;;;;;;;4975337;28;20017;-80
2022/06/27 09:13:54;;;;;;;;;;;;;;;;;;4992296;28;20009;-80
2022/06/27 09:16:20;;;;;;;;;;;;;;;;;;4975298;28;19941;-80
2022/06/27 09:18:45;;;;;;;;;;;;;;;;;;4992859;28;19914;-80
2022/06/27 09:21:13;;;;;;;;;;;;;;;;;;4958740;28;19963;-79
2022/06/27 09:23:40;;;;;;;;;;;;;;;;;;4959025;28;19925;-79
2022/06/27 09:26:08;;;;;;;;;;;;;;;;;;4975208;28;20389;-79
2022/06/27 09:28:33;;;;;;;;;;;;;;;;;;4943551;28;19914;-79
2022/06/27 09:30:59;;;;;;;;;;;;;;;;;;4992289;28;19920;-79
2022/06/27 09:33:26;;;;;;;;;;;;;;;;;;4992555;28;20009;-79
2022/06/27 09:35:52;;;;;;;;;;;;;;;;;;4977389;28;19914;-79
2022/06/27 09:38:19;;;;;;;;;;;;;;;;;;4963091;28;19914;-79
2022/06/27 09:40:44;;;;;;;;;;;;;;;;;;4962224;28;20396;-78
2022/06/27 09:43:10;;;;;;;;;;;;;;;;;;4962237;28;19917;-78
2022/06/27 09:45:38;;;;;;;;;;;;;;;;;;4995582;28;19913;-78
2022/06/27 09:48:04;;;;;;;;;;;;;;;;;;4962655;28;19914;-78
2022/06/27 09:50:32;;;;;;;;;;;;;;;;;;4962685;28;20070;-79
2022/06/27 09:53:00;;;;;;;;;;;;;;;;;;4978232;28;19918;-78
2022/06/27 09:55:27;;;;;;;;;;;;;;;;;;4978456;28;19910;-78
2022/06/27 09:57:52;;;;;;;;;;;;;;;;;;4977963;28;20107;-77
2022/06/27 10:00:17;;;;;;;;;;;;;;;;;;4978415;28;20367;-80
2022/06/27 10:02:43;;;;;;;;;;;;;;;;;;4961999;28;20370;-77
2022/06/27 10:05:11;;;;;;;;;;;;;;;;;;4961698;28;19918;-78
2022/06/27 10:07:38;;;;;;;;;;;;;;;;;;4978534;28;20000;-79
2022/06/27 10:10:04;;;;;;;;;;;;;;;;;;4978158;28;19914;-78
2022/06/27 10:12:31;;;;;;;;;;;;;;;;;;4977572;28;19924;-78
2022/06/27 10:15:00;;;;;;;;;;;;;;;;;;4961779;28;19964;-78
2022/06/27 10:17:28;;;;;;;;;;;;;;;;;;4978085;28;19949;-78
2022/06/27 10:19:53;;;;;;;;;;;;;;;;;;4945962;28;19945;-78
2022/06/27 10:22:19;;;;;;;;;;;;;;;;;;4962316;28;20371;-78
2022/06/27 10:24:45;;;;;;;;;;;;;;;;;;4977542;28;19914;-78
2022/06/27 10:27:11;;;;;;;;;;;;;;;;;;4946081;28;19914;-78
2022/06/27 10:29:39;;;;;;;;;;;;;;;;;;4977497;28;19917;-77
2022/06/27 10:32:05;;;;;;;;;;;;;;;;;;4960939;28;19937;-78
2022/06/27 10:34:30;;;;;;;;;;;;;;;;;;4977425;28;20293;-77
2022/06/27 10:36:56;;;;;;;;;;;;;;;;;;4977309;28;20281;-77
2022/06/27 10:39:22;;;;;;;;;;;;;;;;;;4961002;28;19980;-78
2022/06/27 10:41:47;;;;;;;;;;;;;;;;;;4994181;28;19920;-79
2022/06/27 10:44:13;;;;;;;;;;;;;;;;;;4960883;28;19925;-80
2022/06/27 10:46:39;;;;;;;;;;;;;;;;;;4944814;28;20312;-78
2022/06/27 10:49:05;;;;;;;;;;;;;;;;;;4961124;28;19909;-79
2022/06/27 10:51:31;;;;;;;;;;;;;;;;;;4977009;28;19914;-77
2022/06/27 10:53:57;;;;;;;;;;;;;;;;;;4960550;28;20270;-78
2022/06/27 10:56:22;;;;;;;;;;;;;;;;;;4961006;28;19920;-78
2022/06/27 10:58:48;;;;;;;;;;;;;;;;;;4961057;28;19914;-78
2022/06/27 11:01:13;;;;;;;;;;;;;;;;;;4993738;28;19913;-78
2022/06/27 11:03:39;;;;;;;;;;;;;;;;;;4960711;28;19917;-78
2022/06/27 11:06:05;;;;;;;;;;;;;;;;;;4977395;28;19910;-79
2022/06/27 11:08:30;;;;;;;;;;;;;;;;;;4944932;28;20252;-75
2022/06/27 11:10:56;;;;;;;;;;;;;;;;;;4976382;28;19913;-76
2022/06/27 11:13:22;;;;;;;;;;;;;;;;;;4993723;28;20013;-77
2022/06/27 11:15:47;;;;;;;;;;;;;;;;;;4976373;28;19921;-77
2022/06/27 11:18:13;;;;;;;;;;;;;;;;;;4976677;28;19918;-76
2022/06/27 11:20:38;;;;;;;;;;;;;;;;;;4994031;28;19961;-77
2022/06/27 11:23:04;;;;;;;;;;;;;;;;;;4960161;28;20266;-78
2022/06/27 11:25:29;;;;;;;;;;;;;;;;;;4960194;28;19946;-76
2022/06/27 11:27:55;;;;;;;;;;;;;;;;;;4959987;28;19968;-76
2022/06/27 11:33:05;;;;;;;;;;;;;;;;;;4993160;28;19918;-76
2022/06/27 11:35:31;;;;;;;;;;;;;;;;;;4976394;28;20436;-76
2022/06/27 11:37:56;;;;;;;;;;;;;;;;;;4993604;28;20293;-77
2022/06/27 11:40:22;;;;;;;;;;;;;;;;;;4976152;28;19913;-76
2022/06/27 11:42:47;;;;;;;;;;;;;;;;;;4975773;28;19918;-77
2022/06/27 11:45:13;;;;;;;;;;;;;;;;;;4959959;28;19914;-76
2022/06/27 11:47:40;;;;;;;;;;;;;;;;;;4944485;28;20022;-76
2022/06/27 11:50:06;;;;;;;;;;;;;;;;;;4976053;28;19909;-77
2022/06/27 11:52:35;;;;;;;;;;;;;;;;;;4944560;28;19972;-77
2022/06/27 11:55:00;;;;;;;;;;;;;;;;;;4959811;28;20293;-77
2022/06/27 11:57:26;;;;;;;;;;;;;;;;;;4975267;28;20000;-77
2022/06/27 11:59:52;;;;;;;;;;;;;;;;;;4992782;28;19918;-77
2022/06/27 12:02:17;;;;;;;;;;;;;;;;;;4975185;28;19913;-77
2022/06/27 12:04:43;;;;;;;;;;;;;;;;;;4993032;28;19914;-76
2022/06/27 12:07:08;;;;;;;;;;;;;;;;;;4992976;28;19918;-76
2022/06/27 12:09:33;;;;;;;;;;;;;;;;;;4959497;28;20304;-77
2022/06/27 12:11:59;;;;;;;;;;;;;;;;;;4992603;28;20403;-76
2022/06/27 12:14:25;;;;;;;;;;;;;;;;;;4975287;28;20317;-77
2022/06/27 12:16:50;;;;;;;;;;;;;;;;;;4992700;28;20003;-77
2022/06/27 12:19:16;;;;;;;;;;;;;;;;;;4975814;28;20280;-77
2022/06/27 12:21:41;;;;;;;;;;;;;;;;;;4992721;28;19914;-77
2022/06/27 12:24:06;;;;;;;;;;;;;;;;;;4959294;28;20293;-77
2022/06/27 12:26:32;;;;;;;;;;;;;;;;;;4975593;28;19937;-76
2022/06/27 12:28:57;;;;;;;;;;;;;;;;;;4992519;28;19914;-76
2022/06/27 12:31:23;;;;;;;;;;;;;;;;;;4992580;28;19914;-77
2022/06/27 12:33:48;;;;;;;;;;;;;;;;;;4992583;28;20004;-78
2022/06/27 12:36:15;;;;;;;;;;;;;;;;;;4958941;28;20342;-78
2022/06/27 12:38:40;;;;;;;;;;;;;;;;;;4959304;28;19984;-78
2022/06/27 12:41:12;;;;;;;;;;;;;;;;;;4943403;28;19913;-78
2022/06/27 12:43:37;;;;;;;;;;;;;;;;;;4992417;28;19925;-79
2022/06/27 12:46:03;;;;;;;;;;;;;;;;;;4975530;28;20269;-78
2022/06/27 12:48:28;;;;;;;;;;;;;;;;;;4992662;28;19925;-78
2022/06/27 12:50:54;;;;;;;;;;;;;;;;;;4959033;28;19917;-78
2022/06/27 12:53:23;;;;;;;;;;;;;;;;;;4992872;28;19918;-78
2022/06/27 12:55:58;;;;;;;;;;;;;;;;;;4975130;28;20399;-77
2022/06/27 12:58:24;;;;;;;;;;;;;;;;;;4974884;28;19913;-77
2022/06/27 13:00:49;;;;;;;;;;;;;;;;;;4992296;28;19932;-78
2022/06/27 13:03:15;;;;;;;;;;;;;;;;;;4992250;28;20305;-77
2022/06/27 13:05:40;;;;;;;;;;;;;;;;;;4974828;28;20415;-77
2022/06/27 13:08:07;;;;;;;;;;;;;;;;;;4975242;28;20357;-77
2022/06/27 13:10:33;;;;;;;;;;;;;;;;;;4995054;28;20001;-77
2022/06/27 13:12:58;;;;;;;;;;;;;;;;;;4978250;28;20042;-76
2022/06/27 13:15:24;;;;;;;;;;;;;;;;;;4978673;28;19913;-77
2022/06/27 13:17:49;;;;;;;;;;;;;;;;;;4978509;28;19994;-78
2022/06/27 13:20:14;;;;;;;;;;;;;;;;;;4978374;28;20310;-78
2022/06/27 13:22:40;;;;;;;;;;;;;;;;;;4961874;28;19913;-78
2022/06/27 13:25:06;;;;;;;;;;;;;;;;;;4962504;28;19914;-78
2022/06/27 13:27:31;;;;;;;;;;;;;;;;;;4962307;28;19953;-77
2022/06/27 13:29:56;;;;;;;;;;;;;;;;;;4995659;28;20313;-78
2022/06/27 13:32:23;;;;;;;;;;;;;;;;;;4977863;28;19914;-77
2022/06/27 13:34:48;;;;;;;;;;;;;;;;;;4962421;28;19920;-77
2022/06/27 13:37:14;;;;;;;;;;;;;;;;;;4978317;28;20013;-78
2022/06/27 13:39:39;;;;;;;;;;;;;;;;;;4978483;28;19920;-77
2022/06/27 13:42:05;;;;;;;;;;;;;;;;;;4995338;28;19921;-77
2022/06/27 13:44:32;;;;;;;;;;;;;;;;;;4978133;28;19913;-77
2022/06/27 13:46:57;;;;;;;;;;;;;;;;;;4962265;28;19917;-78
2022/06/27 13:49:23;;;;;;;;;;;;;;;;;;4962171;28;19937;-79
2022/06/27 13:51:49;;;;;;;;;;;;;;;;;;4961912;28;19945;-79
2022/06/27 13:54:14;;;;;;;;;;;;;;;;;;4962587;28;19918;-77
2022/06/27 13:56:39;;;;;;;;;;;;;;;;;;4977640;28;20376;-77
2022/06/27 13:59:14;;;;;;;;;;;;;;;;;;4977882;28;20404;-78
2022/06/27 14:01:40;;;;;;;;;;;;;;;;;;4945515;28;19914;-78
2022/06/27 14:04:09;;;;;;;;;;;;;;;;;;4946269;28;20052;-78
2022/06/27 14:09:19;;;;;;;;;;;;;;;;;;4961505;28;19964;-77
2022/06/27 14:11:45;;;;;;;;;;;;;;;;;;4977507;28;19914;-77
2022/06/27 14:14:11;;;;;;;;;;;;;;;;;;4962040;28;19918;-78
2022/06/27 14:16:36;;;;;;;;;;;;;;;;;;4977684;28;19929;-77
2022/06/27 14:19:02;;;;;;;;;;;;;;;;;;4961770;28;19914;-77
2022/06/27 14:21:28;;;;;;;;;;;;;;;;;;4944691;28;19914;-78
2022/06/27 14:23:53;;;;;;;;;;;;;;;;;;4945593;28;19920;-78
2022/06/27 14:26:19;;;;;;;;;;;;;;;;;;4945380;28;19949;-77
2022/06/27 14:28:44;;;;;;;;;;;;;;;;;;4994819;28;20008;-78
2022/06/27 14:31:11;;;;;;;;;;;;;;;;;;4977312;28;19914;-78
2022/06/27 14:33:39;;;;;;;;;;;;;;;;;;4961304;28;19924;-78
2022/06/27 14:36:04;;;;;;;;;;;;;;;;;;4994521;28;19969;-78
2022/06/27 14:38:30;;;;;;;;;;;;;;;;;;4962567;28;19914;-78
2022/06/27 14:40:55;;;;;;;;;;;;;;;;;;4961097;28;20270;-78
2022/06/27 14:43:21;;;;;;;;;;;;;;;;;;4968567;23;19933;-81
2022/06/27 14:45:53;;;;;;;;;;;;;;;;;;4928263;28;19914;-80
2022/06/27 14:48:18;;;;;;;;;;;;;;;;;;4974906;28;19984;-82
2022/06/27 14:50:43;;;;;;;;;;;;;;;;;;4957487;28;19914;-80
2022/06/27 14:53:09;;;;;;;;;;;;;;;;;;4974388;28;19918;-80
2022/06/27 14:55:34;;;;;;;;;;;;;;;;;;4975307;28;19915;-82
2022/06/27 14:58:00;;;;;;;;;;;;;;;;;;4974370;28;19924;-82
2022/06/27 15:00:25;;;;;;;;;;;;;;;;;;4973844;28;19914;-80
2022/06/27 15:02:51;;;;;;;;;;;;;;;;;;4925518;28;19918;-79
2022/06/27 15:05:16;;;;;;;;;;;;;;;;;;4975012;28;19918;-78
2022/06/27 15:07:42;;;;;;;;;;;;;;;;;;4941292;28;20292;-80
2022/06/27 15:10:07;;;;;;;;;;;;;;;;;;4941668;28;19980;-81
2022/06/27 15:12:33;;;;;;;;;;;;;;;;;;4974507;28;19922;-79
2022/06/27 15:14:58;;;;;;;;;;;;;;;;;;4941672;28;19977;-82
2022/06/27 15:17:27;;;;;;;;;;;;;;;;;;4973514;28;19914;-80
2022/06/27 15:19:52;;;;;;;;;;;;;;;;;;4942648;28;19929;-80
2022/06/27 15:22:18;;;;;;;;;;;;;;;;;;4978624;28;20172;-82
2022/06/27 15:24:43;;;;;;;;;;;;;;;;;;4926296;28;19914;-81
2022/06/27 15:27:09;;;;;;;;;;;;;;;;;;4959091;28;19921;-79
2022/06/27 15:29:34;;;;;;;;;;;;;;;;;;4957601;28;20001;-81
2022/06/27 15:32:00;;;;;;;;;;;;;;;;;;4925305;28;19914;-80
2022/06/27 15:34:32;;;;;;;;;;;;;;;;;;4973906;28;20004;-82
2022/06/27 15:36:57;;;;;;;;;;;;;;;;;;4972773;28;19914;-81
2022/06/27 15:39:23;;;;;;;;;;;;;;;;;;4925419;28;20270;-81
2022/06/27 15:41:48;;;;;;;;;;;;;;;;;;4943544;28;19964;-80
2022/06/27 15:44:14;;;;;;;;;;;;;;;;;;4928784;28;20286;-81
2022/06/27 15:46:40;;;;;;;;;;;;;;;;;;4958890;28;20309;-81
2022/06/27 15:49:06;;;;;;;;;;;;;;;;;;4959152;28;19977;-81
2022/06/27 15:51:31;;;;;;;;;;;;;;;;;;4979553;28;19911;-81
2022/06/27 15:53:57;;;;;;;;;;;;;;;;;;4976390;28;19925;-79
2022/06/27 15:56:22;;;;;;;;;;;;;;;;;;4942928;28;19914;-82
2022/06/27 15:58:48;;;;;;;;;;;;;;;;;;4927646;28;19914;-82
2022/06/27 16:01:13;;;;;;;;;;;;;;;;;;4927562;28;20262;-81
2022/06/27 16:03:40;;;;;;;;;;;;;;;;;;4927342;28;19910;-82
2022/06/27 16:06:05;;;;;;;;;;;;;;;;;;4926037;28;19937;-82
2022/06/27 16:08:34;;;;;;;;;;;;;;;;;;4958498;28;19913;-82
2022/06/27 16:11:03;;;;;;;;;;;;;;;;;;4942671;28;19930;-82
2022/06/27 16:13:28;;;;;;;;;;;;;;;;;;4929386;28;19918;-81
2022/06/27 16:15:54;;;;;;;;;;;;;;;;;;4944462;28;19980;-81
2022/06/27 16:18:20;;;;;;;;;;;;;;;;;;4943923;28;19962;-82
2022/06/27 16:20:46;;;;;;;;;;;;;;;;;;4929378;28;19965;-81
2022/06/27 16:23:14;;;;;;;;;;;;;;;;;;4944500;28;19914;-82
2022/06/27 16:25:49;;;;;;;;;;;;;;;;;;4927158;28;19957;-81
2022/06/27 16:28:42;;;;;;;;;;;;;;;;;;4947189;28;19922;-80
2022/06/27 16:33:52;;;;;;;;;;;;;;;;;;4943889;28;19918;-78
2022/06/27 16:36:17;;;;;;;;;;;;;;;;;;4944938;28;20278;-81
2022/06/27 16:38:43;;;;;;;;;;;;;;;;;;4976874;28;19961;-80
2022/06/27 16:41:08;;;;;;;;;;;;;;;;;;4958814;28;20385;-78
2022/06/27 16:43:33;;;;;;;;;;;;;;;;;;4958183;28;19918;-80
2022/06/27 16:45:59;;;;;;;;;;;;;;;;;;4980296;28;19914;-80
2022/06/27 16:48:25;;;;;;;;;;;;;;;;;;4947086;28;19949;-80
2022/06/27 16:53:49;;;;;;;;;;;;;;;;;;4940209;28;19917;-81
2022/06/27 16:56:14;;;;;;;;;;;;;;;;;;4977749;28;20012;-83
2022/06/27 16:58:40;;;;;;;;;;;;;;;;;;4977330;28;19921;-80
2022/06/27 17:01:07;;;;;;;;;;;;;;;;;;4961049;28;19914;-82
2022/06/27 17:03:33;;;;;;;;;;;;;;;;;;4944375;28;20008;-82
2022/06/27 17:05:58;;;;;;;;;;;;;;;;;;4946104;28;20012;-81
2022/06/27 17:08:23;;;;;;;;;;;;;;;;;;4979843;28;19965;-82
2022/06/27 17:10:49;;;;;;;;;;;;;;;;;;4943995;28;20290;-81
2022/06/27 17:13:14;;;;;;;;;;;;;;;;;;4975582;28;19973;-81
2022/06/27 17:15:40;;;;;;;;;;;;;;;;;;4943429;28;19961;-81
2022/06/27 17:18:05;;;;;;;;;;;;;;;;;;4943772;28;19914;-81